Station: Gove Airport  

  Atmospheric Gas Attenuation - ITU Rec 676-11   ----------------- dB/100km -----------------
Date Time Temp RH % AH g/m3 Dew Point Wind Direction Speed kph Gust kph Barometer mB Rainfall Since 9am 24GHz 47GHz 76GHz 122GHz 134GHz 241GHz
06/05 03:50 25.5 84 19.89 22.6 15 17 1010.4 0.2 42.8 41.4 80.7 213.6 236.6 822.0
06/05 03:40 25.5 84 19.89 22.6 17 17 1010.4 0.2 42.8 41.4 80.7 213.6 236.6 822.0
06/05 03:30 25.6 83 19.76 22.5 17 26 1010.4 0.2 42.5 41.1 80.0 211.7 234.3 813.9
06/05 03:20 25.6 83 19.76 22.5 19 20 1010.4 0.2 42.5 41.1 80.0 211.7 234.3 813.9
06/05 03:10 25.6 83 19.76 22.5 15 19 1010.4 0.2 42.5 41.1 80.0 211.7 234.3 813.9
06/05 03:00 25.7 83 19.87 22.6 17 22 1010.5 0.2 42.8 41.2 80.4 212.8 235.7 818.8
06/05 02:50 25.7 83 19.87 22.6 19 20 1010.5 0.2 42.8 41.2 80.4 212.8 235.7 818.8
06/05 02:40 25.6 84 20 22.7 15 17 1010.5 0.2 43.0 41.5 81.2 214.8 238.0 827.0
06/05 02:30 25.8 82 19.74 22.5 17 26 1010.5 0.2 42.5 40.9 79.7 210.9 233.4 810.7
06/05 02:20 25.7 83 19.87 22.6 17 20 1010.5 0.2 42.8 41.2 80.4 212.8 235.7 818.8
06/05 02:10 25.8 82 19.74 22.5 19 22 1010.6 0.2 42.5 40.9 79.7 210.9 233.4 810.7
06/05 02:00 25.6 83 19.76 22.5 17 22 1010.8 0.2 42.5 41.1 80.0 211.8 234.3 814.1
06/05 01:50 25.8 82 19.74 22.5 19 20 1010.9 0.2 42.5 41.0 79.7 211.0 233.4 810.9
06/05 01:40 25.8 82 19.74 22.5 17 19 1011.1 0.2 42.5 41.0 79.7 211.0 233.4 811.0
06/05 01:30 25.9 81 19.61 22.4 19 24 1011.2 0.2 42.2 40.7 79.0 209.1 231.1 803.0
06/05 01:20 25.9 81 19.61 22.4 20 22 1011.2 0.2 42.2 40.7 79.0 209.1 231.1 803.0
06/05 01:10 25.9 81 19.61 22.4 19 20 1011.4 0.2 42.2 40.7 79.0 209.1 231.2 803.1
06/05 01:00 25.8 81 19.5 22.3 17 22 1011.4 0.2 41.9 40.5 78.6 208.0 229.8 798.2
06/05 00:50 25.8 81 19.5 22.3 15 17 1011.5 0.2 41.9 40.5 78.6 208.0 229.8 798.3
06/05 00:40 25.9 81 19.61 22.4 17 20 1011.5 0.2 42.2 40.7 79.0 209.1 231.2 803.1
06/05 00:30 25.9 81 19.61 22.4 19 26 1011.6 0.2 42.2 40.7 79.0 209.2 231.2 803.2
06/05 00:20 25.9 81 19.61 22.4 19 22 1011.7 0.2 42.2 40.7 79.1 209.2 231.2 803.2
06/05 00:10 26 80 19.48 22.3 20 24 1011.8 0.2 41.9 40.4 78.3 207.3 228.9 795.3
06/05 00:00 26 80 19.48 22.3 20 26 1011.8 0.2 41.9 40.4 78.3 207.3 228.9 795.3
05/05 23:50 26 80 19.48 22.3 19 22 1011.9 0.2 41.9 40.4 78.3 207.3 228.9 795.3
05/05 23:40 26 80 19.48 22.3 20 22 1012 0.2 41.9 40.4 78.4 207.3 228.9 795.4
05/05 23:30 26 80 19.48 22.3 19 28 1011.9 0.2 41.9 40.4 78.3 207.3 228.9 795.3
05/05 23:20 26.1 79 19.34 22.2 19 22 1012 0.2 41.6 40.1 77.6 205.3 226.5 786.8
05/05 23:10 26 81 19.72 22.5 15 17 1012 0.2 42.4 40.9 79.5 210.3 232.7 808.3
05/05 23:00 26.1 80 19.59 22.4 19 24 1011.9 0.2 42.1 40.6 78.8 208.4 230.3 800.2
05/05 22:50 26.1 79 19.34 22.2 20 22 1011.9 0.2 41.6 40.1 77.6 205.3 226.5 786.8
05/05 22:40 26.1 80 19.59 22.4 17 19 1012 0.2 42.1 40.6 78.8 208.4 230.3 800.2
05/05 22:30 26.2 80 19.69 22.5 17 22 1012.1 0.2 42.3 40.7 79.1 209.4 231.6 804.6
05/05 22:20 26.1 81 19.83 22.6 15 17 1012.1 0.2 42.6 41.0 79.9 211.5 234.1 813.2
05/05 22:10 26.2 81 19.94 22.7 19 22 1012.2 0.2 42.8 41.2 80.3 212.6 235.5 818.1
05/05 22:00 26.2 81 19.94 22.7 17 22 1012.2 0.2 42.8 41.2 80.3 212.6 235.5 818.1
05/05 21:50 26.3 81 20.05 22.8 15 17 1012.2 0.2 43.1 41.4 80.8 213.7 236.9 822.9
05/05 21:40 26.3 81 20.05 22.8 19 20 1012.3 0.2 43.1 41.4 80.8 213.7 236.9 823.0
05/05 21:30 26.3 81 20.05 22.8 19 24 1012.3 0.2 43.1 41.4 80.8 213.7 236.9 823.0
05/05 21:20 26.3 81 20.05 22.8 15 17 1012.4 0.2 43.1 41.4 80.8 213.7 236.9 823.1
05/05 21:10 26.2 81 19.94 22.7 17 20 1012.3 0.2 42.8 41.2 80.3 212.6 235.5 818.1
05/05 21:00 26.2 81 19.94 22.7 17 20 1012.3 0.2 42.8 41.2 80.3 212.6 235.5 818.1
05/05 20:50 26.2 81 19.94 22.7 15 17 1012.3 0.2 42.8 41.2 80.3 212.6 235.5 818.1
05/05 20:40 26.2 82 20.19 22.9 17 19 1012.2 0.2 43.4 41.7 81.5 215.8 239.4 831.6
05/05 20:30 26.2 81 19.94 22.7 17 24 1012.1 0.2 42.8 41.2 80.3 212.6 235.5 818.0
05/05 20:20 26.1 83 20.32 23 15 17 1012 0.2 43.7 42.0 82.2 217.7 241.7 839.7
05/05 20:10 26.2 83 20.43 23.1 17 17 1011.8 0.2 43.9 42.1 82.7 218.8 243.1 844.5
05/05 20:00 26 86 20.94 23.5 13 17 1011.8 0.2 45.0 43.2 85.4 225.9 251.8 874.8
05/05 19:50 26 89 21.67 24 11 13 1011.7 0.2 46.5 44.7 89.0 235.5 263.5 915.6
05/05 19:40 26.1 90 22.03 24.3 13 13 1011.6 0.2 47.3 45.3 90.6 240.0 269.0 934.7
05/05 19:30 26 90 21.91 24.2 13 19 1011.5 0.2 47.1 45.1 90.1 238.7 267.4 929.1
05/05 19:20 26 89 21.67 24 15 17 1011.4 0.2 46.5 44.7 88.9 235.5 263.5 915.5
05/05 19:10 26 89 21.67 24 11 13 1011.2 0.2 46.5 44.6 88.9 235.4 263.5 915.3
05/05 19:00 26.2 88 21.66 24.1 17 24 1011.1 0.2 46.5 44.5 88.6 234.6 262.6 912.3
05/05 18:50 26.9 82 20.99 23.6 17 19 1011 0 45.0 42.8 84.5 223.8 249.4 866.7
05/05 18:40 27.3 78 20.41 23.1 24 30 1010.8 0 43.7 41.5 81.3 215.2 239.0 830.6
05/05 18:30 27.3 77 20.15 22.9 24 30 1010.8 0 43.2 41.0 80.1 211.9 235.0 816.7
05/05 18:20 27.4 77 20.26 23 24 30 1010.7 0 43.4 41.2 80.5 213.0 236.4 821.4
05/05 18:10 27.5 78 20.64 23.3 26 32 1010.6 0 44.2 41.8 82.2 217.5 241.9 840.7
05/05 18:00 27.4 77 20.26 23 22 32 1010.5 0 43.4 41.1 80.5 213.0 236.3 821.3
05/05 17:50 27.5 76 20.11 22.9 22 22 1010.4 0 43.1 40.8 79.6 210.8 233.7 812.2
05/05 17:40 27.6 76 20.22 23 30 35 1010.3 0 43.3 41.0 80.0 211.9 235.1 816.9
05/05 17:30 27.8 76 20.44 23.2 26 33 1010.2 0 43.7 41.3 80.9 214.0 237.8 826.4
05/05 17:20 28 74 20.13 22.9 33 39 1010.2 0 43.0 40.6 79.2 209.6 232.4 807.8
05/05 17:10 28.6 73 20.52 23.3 24 26 1010.3 0 43.8 41.0 80.4 212.8 236.5 822.0
05/05 17:00 28.3 73 20.18 23 28 33 1010.2 0 43.1 40.5 79.1 209.4 232.3 807.2
05/05 16:50 27.9 74 20.02 22.8 28 32 1010.2 0 42.8 40.4 78.8 208.5 231.1 803.0
05/05 16:40 28.3 73 20.18 23 30 35 1010.2 0 43.1 40.5 79.1 209.4 232.3 807.2
05/05 16:30 28.1 74 20.24 23 30 37 1010.1 0 43.3 40.7 79.6 210.7 233.8 812.5
05/05 16:20 28.5 74 20.69 23.4 30 35 1009.9 0 44.2 41.4 81.3 215.1 239.3 831.9
05/05 16:10 29 73 20.97 23.7 28 35 1009.9 0 44.7 41.7 82.0 217.2 242.0 841.2
05/05 16:00 29.2 72 20.91 23.6 26 33 1009.8 0 44.6 41.4 81.5 215.9 240.4 835.8
05/05 15:50 29.1 69 19.93 22.8 28 33 1009.8 0 42.5 39.7 77.1 204.1 226.0 785.6
05/05 15:40 29 71 20.4 23.2 32 33 1009.8 0 43.5 40.6 79.4 210.1 233.3 811.1
05/05 15:30 30 69 20.93 23.7 26 32 1009.8 0 44.5 41.1 80.8 213.9 238.2 828.1
05/05 15:20 29.4 69 20.26 23.1 28 32 1009.9 0 43.2 40.1 78.3 207.3 230.0 799.6
05/05 15:10 29.4 69 20.26 23.3 26 33 1009.9 0 43.2 40.1 78.3 207.3 230.0 799.6
05/05 15:00 29.1 69 19.93 22.8 28 37 1010 0 42.5 39.7 77.1 204.2 226.0 785.7
05/05 14:50 29.4 69 20.26 23.1 30 32 1010 0 43.2 40.2 78.3 207.4 230.0 799.7
05/05 14:40 29.6 68 20.18 23.1 28 33 1010.1 0 43.0 39.9 77.8 205.9 228.3 793.5
05/05 14:30 29.8 68 20.4 23.3 26 37 1010.1 0 43.4 40.2 78.6 208.0 230.9 802.8
05/05 14:20 29.8 69 20.7 23.5 28 30 1010.2 0 44.0 40.8 80.0 211.7 235.4 818.4
05/05 14:10 29.5 69 20.37 23.4 30 35 1010.2 0 43.4 40.3 78.7 208.5 231.4 804.4
05/05 14:00 29.3 68 19.86 22.8 28 35 1010.4 0 42.3 39.5 76.6 202.8 224.5 780.2
05/05 13:50 29.1 70 20.22 23.1 32 33 1010.5 0 43.1 40.2 78.5 207.8 230.4 801.0
05/05 13:40 29.3 69 20.15 23 26 32 1010.6 0 42.9 40.0 78.0 206.4 228.8 795.3
05/05 13:30 29.8 67 20.1 23 26 35 1010.6 0 42.8 39.7 77.2 204.4 226.5 787.6
05/05 13:20 29.4 69 20.26 23.3 28 30 1010.6 0 43.2 40.2 78.4 207.5 230.1 800.0
05/05 13:10 29.4 69 20.26 23.1 26 30 1010.7 0 43.2 40.2 78.4 207.5 230.2 800.1
05/05 13:00 30 69 20.93 23.7 26 35 1010.7 0 44.5 41.1 80.8 214.0 238.3 828.6
05/05 12:50 29.5 68 20.07 23 26 32 1010.8 0 42.8 39.8 77.4 204.9 227.0 789.2
05/05 12:40 29.7 69 20.59 23.6 24 26 1010.9 0 43.8 40.7 79.6 210.7 234.2 814.2
05/05 12:30 29.5 68 20.07 23 28 39 1011 0 42.8 39.8 77.4 204.9 227.1 789.3
05/05 12:20 30.7 65 20.47 23.4 24 28 1011.1 0 43.5 40.0 78.0 206.6 229.4 797.5
05/05 12:10 30.7 62 19.53 22.8 20 28 1011.1 0 41.5 38.3 73.8 195.4 215.7 749.9
05/05 12:00 30.9 59 18.79 22.2 24 32 1011.3 0 39.9 36.9 70.4 186.3 204.6 711.4
05/05 11:50 30.6 59 18.48 21.7 26 30 1011.4 0 39.3 36.5 69.4 183.5 201.1 698.9
05/05 11:40 30.7 61 19.21 22.3 26 32 1011.5 0 40.8 37.7 72.4 191.7 211.1 734.1
05/05 11:30 30.7 61 19.21 22.3 28 35 1011.6 0 40.8 37.7 72.5 191.7 211.2 734.1
05/05 11:20 30.2 65 19.93 22.9 28 33 1011.9 0 42.4 39.3 76.1 201.5 223.1 775.5

Last Refresh: 06-May-2026 03:57:41

Bureau of Meteorology